Time;durP1;ratioP1;P1;durP2;ratioP2;P2;SDS_P1;SDS_P2;PMS_P1;PMS_P2;Temp;Humidity;BMP_temperature;BMP_pressure;BME280_temperature;BME280_humidity;BME280_pressure;Samples;Min_cycle;Max_cycle;Signal;HPM_P1;HPM_P2
2021/12/04 00:05:26;;;;;;;12.50;7.13;;;1.00;99.30;;;;;;5055884;28;20021;-82
2021/12/04 00:14:44;;;;;;;16.48;8.07;;;0.80;99.90;;;;;;5055808;28;20060;-81
2021/12/04 00:21:09;;;;;;;13.23;7.90;;;0.70;99.90;;;;;;5056979;28;20036;-81
2021/12/04 00:33:53;;;;;;;13.50;7.97;;;0.40;99.90;;;;;;5055226;28;20029;-81
2021/12/04 00:59:55;;;;;;;9.77;5.55;;;0.00;99.90;;;;;;5055738;28;20068;-82
2021/12/04 01:37:32;;;;;;;17.95;8.95;;;-0.60;99.90;;;;;;5055076;28;20529;-82
2021/12/04 01:39:58;;;;;;;14.63;7.55;;;-0.60;99.90;;;;;;5054645;28;20056;-81
2021/12/04 01:42:24;;;;;;;11.88;7.07;;;-0.70;99.90;;;;;;5037825;28;20463;-81
2021/12/04 01:45:05;;;;;;;13.23;7.13;;;-0.70;99.90;;;;;;5054641;28;20047;-82
2021/12/04 01:50:56;;;;;;;11.45;6.00;;;-0.70;99.90;;;;;;5054955;28;20036;-81
2021/12/04 01:53:23;;;;;;;10.07;6.40;;;-0.80;99.90;;;;;;5055120;28;20464;-81
2021/12/04 01:55:51;;;;;;;11.45;6.82;;;-0.80;99.90;;;;;;5053851;28;20494;-82
2021/12/04 01:58:38;;;;;;;10.23;6.28;;;-0.80;99.90;;;;;;5036751;28;20131;-81
2021/12/04 02:04:33;;;;;;;9.85;5.25;;;-0.90;99.90;;;;;;5054615;28;20059;-81
2021/12/04 02:07:03;;;;;;;10.88;5.80;;;-1.00;99.90;;;;;;5054549;28;20040;-81
2021/12/04 02:09:29;;;;;;;13.15;7.20;;;-1.00;99.90;;;;;;5036378;28;20048;-81
2021/12/04 02:11:55;;;;;;;14.13;8.02;;;-1.00;99.90;;;;;;5036511;28;20468;-82
2021/12/04 02:14:21;;;;;;;13.48;7.45;;;-1.10;99.90;;;;;;5054634;28;20029;-81
2021/12/04 02:16:46;;;;;;;12.43;6.75;;;-1.10;99.90;;;;;;5036511;28;20461;-81
2021/12/04 02:19:14;;;;;;;13.18;7.20;;;-1.10;99.90;;;;;;5054634;28;20048;-81
2021/12/04 02:21:41;;;;;;;13.80;7.80;;;-1.20;99.90;;;;;;5036586;28;20505;-81
2021/12/04 02:24:07;;;;;;;12.73;7.05;;;-1.20;99.90;;;;;;5054459;28;20037;-81
2021/12/04 02:26:33;;;;;;;12.30;6.93;;;-1.20;99.90;;;;;;5054600;28;20028;-81
2021/12/04 02:28:59;;;;;;;12.38;7.00;;;-1.30;99.90;;;;;;5037133;28;20047;-81
2021/12/04 02:31:33;;;;;;;13.07;7.30;;;-1.30;99.90;;;;;;5054486;28;20033;-81
2021/12/04 02:33:59;;;;;;;13.95;8.40;;;-1.20;99.90;;;;;;5036465;28;20041;-83
2021/12/04 02:36:25;;;;;;;12.48;7.45;;;-1.30;99.90;;;;;;5036166;28;20047;-79
2021/12/04 02:38:51;;;;;;;14.98;8.88;;;-1.20;99.90;;;;;;5053643;28;20068;-81
2021/12/04 02:41:20;;;;;;;15.93;9.18;;;-1.20;99.90;;;;;;5036010;28;20090;-80
2021/12/04 02:43:48;;;;;;;15.00;9.00;;;-1.20;99.90;;;;;;5053786;28;20040;-80
2021/12/04 02:46:16;;;;;;;18.17;10.73;;;-1.20;99.90;;;;;;5036316;28;20033;-79
2021/12/04 02:48:47;;;;;;;20.20;9.70;;;-1.20;99.90;;;;;;5053896;28;20080;-80
2021/12/04 02:51:15;;;;;;;18.98;10.75;;;-1.20;99.90;;;;;;5036193;28;20049;-79
2021/12/04 02:53:41;;;;;;;16.40;9.80;;;-1.20;99.90;;;;;;5035806;28;20037;-78
2021/12/04 02:56:07;;;;;;;13.77;8.05;;;-1.30;99.90;;;;;;5053205;28;20106;-78
2021/12/04 02:58:33;;;;;;;11.95;7.07;;;-1.30;99.90;;;;;;5036115;28;20036;-78
2021/12/04 03:01:01;;;;;;;11.45;6.93;;;-1.30;99.90;;;;;;5053678;28;20039;-79
2021/12/04 03:03:27;;;;;;;11.63;6.65;;;-1.40;99.90;;;;;;5040135;28;20044;-80
2021/12/04 03:05:53;;;;;;;12.75;7.25;;;-1.40;99.90;;;;;;5039546;28;20538;-79
2021/12/04 03:08:19;;;;;;;12.20;6.75;;;-1.40;99.90;;;;;;5057415;28;20059;-78
2021/12/04 03:10:50;;;;;;;12.30;7.30;;;-1.40;99.90;;;;;;5057071;28;20128;-79
2021/12/04 03:13:18;;;;;;;12.77;7.82;;;-1.40;99.90;;;;;;5057567;28;20123;-79
2021/12/04 03:15:47;;;;;;;12.77;7.63;;;-1.40;99.90;;;;;;5057673;28;20033;-79
2021/12/04 03:18:12;;;;;;;14.05;7.72;;;-1.40;99.90;;;;;;5039548;28;20041;-79
2021/12/04 03:21:09;;;;;;;13.50;8.38;;;-1.30;99.90;;;;;;5058113;28;20037;-79
2021/12/04 03:23:41;;;;;;;16.15;8.40;;;-1.40;99.90;;;;;;5057826;28;20083;-79
2021/12/04 03:26:09;;;;;;;15.10;8.18;;;-1.40;99.90;;;;;;5058040;28;20036;-79
2021/12/04 03:28:35;;;;;;;14.52;7.80;;;-1.30;99.90;;;;;;5057623;28;20025;-80
2021/12/04 03:31:39;;;;;;;16.52;9.27;;;-1.40;99.90;;;;;;5057506;28;20037;-78
2021/12/04 03:41:59;;;;;;;14.98;8.85;;;-1.40;99.90;;;;;;5057049;28;20048;-80
2021/12/04 03:44:25;;;;;;;16.70;9.13;;;-1.40;99.90;;;;;;5057452;28;20403;-80
2021/12/04 03:46:51;;;;;;;11.85;7.13;;;-1.40;99.90;;;;;;5039268;28;20044;-79
2021/12/04 03:49:17;;;;;;;13.93;8.13;;;-1.40;99.90;;;;;;5057181;28;20087;-79
2021/12/04 03:51:43;;;;;;;15.60;8.43;;;-1.40;99.90;;;;;;5056837;28;20033;-79
2021/12/04 03:54:08;;;;;;;13.40;7.80;;;-1.40;99.90;;;;;;5056403;28;20029;-79
2021/12/04 03:56:36;;;;;;;13.00;7.78;;;-1.40;99.90;;;;;;5056634;28;20102;-79
2021/12/04 03:59:03;;;;;;;12.63;7.28;;;-1.40;99.90;;;;;;5038714;28;20134;-79
2021/12/04 04:01:29;;;;;;;12.80;7.00;;;-1.50;99.90;;;;;;5039085;28;20029;-79
2021/12/04 04:03:55;;;;;;;14.07;8.27;;;-1.50;99.90;;;;;;5056441;28;20482;-79
2021/12/04 04:06:20;;;;;;;13.43;8.23;;;-1.50;99.90;;;;;;5056769;28;20079;-79
2021/12/04 04:08:46;;;;;;;15.02;8.43;;;-1.60;99.90;;;;;;5039255;28;20478;-79
2021/12/04 04:11:12;;;;;;;11.40;7.35;;;-1.60;99.90;;;;;;5056238;28;20352;-79
2021/12/04 04:13:42;;;;;;;14.90;7.90;;;-1.70;99.90;;;;;;5055680;28;20094;-78
2021/12/04 04:16:08;;;;;;;14.60;8.05;;;-1.70;99.90;;;;;;5038038;28;20120;-78
2021/12/04 04:18:34;;;;;;;13.32;7.97;;;-1.70;99.90;;;;;;5038020;28;20056;-78
2021/12/04 04:21:00;;;;;;;12.35;7.47;;;-1.80;99.90;;;;;;5056297;28;20040;-78
2021/12/04 04:23:26;;;;;;;13.73;8.13;;;-1.80;99.90;;;;;;5056401;28;20531;-79
2021/12/04 04:25:52;;;;;;;13.18;7.57;;;-1.90;99.90;;;;;;5038887;28;20099;-78
2021/12/04 04:28:18;;;;;;;12.35;7.20;;;-1.90;99.90;;;;;;5055866;28;20378;-78
2021/12/04 04:30:45;;;;;;;16.73;8.90;;;-1.90;99.90;;;;;;5038952;28;20040;-79
2021/12/04 04:33:14;;;;;;;11.70;6.78;;;-1.90;99.90;;;;;;5037876;28;20037;-79
2021/12/04 04:35:41;;;;;;;11.45;6.80;;;-2.00;99.90;;;;;;5038783;28;20040;-79
2021/12/04 05:13:21;;;;;;;14.68;8.15;;;-2.20;99.90;;;;;;5055129;28;20459;-79
2021/12/04 05:18:36;;;;;;;15.85;8.38;;;-2.10;99.90;;;;;;5055195;28;20041;-81
2021/12/04 05:21:04;;;;;;;16.88;9.10;;;-2.10;99.90;;;;;;5055478;28;20040;-80
2021/12/04 05:23:43;;;;;;;22.42;10.52;;;-2.10;99.90;;;;;;5037660;28;20041;-80
2021/12/04 05:26:12;;;;;;;35.75;15.35;;;-2.10;99.90;;;;;;5054956;28;20128;-80
2021/12/04 05:28:38;;;;;;;39.22;18.63;;;-2.10;99.90;;;;;;5037169;28;20033;-80
2021/12/04 05:31:04;;;;;;;37.25;17.38;;;-2.10;99.90;;;;;;5054970;28;20525;-79
2021/12/04 05:33:42;;;;;;;35.50;16.20;;;-2.10;99.90;;;;;;5037950;28;20087;-79
2021/12/04 05:36:15;;;;;;;25.90;13.82;;;-2.10;99.90;;;;;;5055673;28;20040;-80
2021/12/04 05:38:41;;;;;;;26.02;13.63;;;-2.10;99.90;;;;;;5054932;28;20067;-80
2021/12/04 05:41:08;;;;;;;19.95;10.13;;;-2.10;99.90;;;;;;5054783;28;20037;-79
2021/12/04 05:43:36;;;;;;;17.10;9.65;;;-2.10;99.90;;;;;;5037369;28;20064;-81
2021/12/04 05:46:12;;;;;;;18.73;10.38;;;-2.10;99.90;;;;;;5055099;28;20095;-81
2021/12/04 05:48:56;;;;;;;28.30;16.17;;;-2.10;99.90;;;;;;5013189;28;20042;-79
2021/12/04 05:56:20;;;;;;;20.33;11.20;;;-2.20;99.90;;;;;;5012914;28;20088;-81
2021/12/04 05:58:47;;;;;;;16.20;8.53;;;-2.20;99.90;;;;;;4997169;28;20030;-80
2021/12/04 06:01:15;;;;;;;15.27;8.85;;;-2.30;99.90;;;;;;4996752;28;20038;-79
2021/12/04 06:03:41;;;;;;;13.50;7.45;;;-2.30;99.90;;;;;;4995632;28;20045;-80
2021/12/04 06:06:07;;;;;;;14.18;7.70;;;-2.30;99.90;;;;;;5012361;28;20034;-80
2021/12/04 06:08:32;;;;;;;12.20;7.18;;;-2.30;99.90;;;;;;4995806;28;20030;-80
2021/12/04 06:10:58;;;;;;;15.32;7.90;;;-2.30;99.90;;;;;;4995877;28;20061;-81
2021/12/04 06:13:25;;;;;;;13.75;8.18;;;-2.30;99.90;;;;;;4996577;28;20469;-80
2021/12/04 06:15:51;;;;;;;13.00;7.30;;;-2.20;99.90;;;;;;5011716;28;20046;-81
2021/12/04 06:18:17;;;;;;;14.98;7.78;;;-2.10;99.90;;;;;;5012080;28;20065;-81
2021/12/04 06:23:28;;;;;;;15.30;9.05;;;-1.90;99.90;;;;;;5053889;28;20039;-80
2021/12/04 06:25:54;;;;;;;18.30;10.13;;;-1.90;99.90;;;;;;5036023;28;20118;-81
2021/12/04 06:28:20;;;;;;;16.92;8.55;;;-1.90;99.90;;;;;;5053855;28;20036;-81
2021/12/04 06:30:46;;;;;;;15.10;7.85;;;-1.80;99.90;;;;;;5054236;28;20045;-80
2021/12/04 06:33:17;;;;;;;14.75;8.20;;;-1.70;99.90;;;;;;5055731;28;20055;-81
2021/12/04 06:35:43;;;;;;;;;;;-1.70;99.90;;;;;;5039486;28;20432;-82
2021/12/04 06:38:11;;;;;;;15.40;8.82;;;-1.60;99.90;;;;;;5036467;28;19912;-80
2021/12/04 06:40:38;;;;;;;17.23;9.00;;;-1.50;99.90;;;;;;5036475;28;20037;-80
2021/12/04 06:43:05;;;;;;;19.33;11.27;;;-1.50;99.90;;;;;;5036837;28;20463;-82
2021/12/04 06:45:35;;;;;;;15.85;9.52;;;-1.30;99.90;;;;;;5053358;28;20025;-81
2021/12/04 06:48:06;;;;;;;15.80;8.57;;;-1.00;99.90;;;;;;5035640;28;20052;-81
2021/12/04 06:50:40;;;;;;;16.77;9.73;;;-0.50;99.90;;;;;;5035922;28;20037;-81
2021/12/04 06:53:18;;;;;;;15.13;9.38;;;0.10;99.90;;;;;;5035828;28;20044;-82
2021/12/04 06:55:47;;;;;;;16.02;9.52;;;0.70;99.90;;;;;;5035358;28;20037;-81
2021/12/04 06:58:13;;;;;;;16.00;9.63;;;1.10;99.90;;;;;;5053655;28;20505;-81
2021/12/04 07:00:39;;;;;;;15.88;9.40;;;1.50;99.90;;;;;;5054117;28;20120;-81
2021/12/04 07:03:05;;;;;;;16.20;9.07;;;1.90;99.90;;;;;;5053532;28;20100;-81
2021/12/04 07:05:31;;;;;;;17.05;9.60;;;2.10;99.90;;;;;;5053920;28;20115;-81
2021/12/04 07:07:56;;;;;;;13.63;8.82;;;2.30;99.90;;;;;;5053404;28;20029;-80
2021/12/04 07:10:22;;;;;;;16.70;9.68;;;2.40;99.90;;;;;;5053355;28;20527;-81
2021/12/04 07:12:48;;;;;;;14.13;9.15;;;2.70;99.90;;;;;;5035624;28;20037;-81
2021/12/04 07:15:13;;;;;;;17.70;10.38;;;3.00;99.90;;;;;;5053837;28;20032;-80
2021/12/04 07:17:39;;;;;;;17.05;10.32;;;3.30;99.90;;;;;;5053340;28;20041;-80
2021/12/04 07:20:07;;;;;;;17.60;9.85;;;3.60;99.90;;;;;;5053110;28;20037;-80
2021/12/04 07:22:34;;;;;;;18.98;11.15;;;3.90;99.90;;;;;;5035373;28;20471;-80
2021/12/04 07:25:00;;;;;;;16.85;10.43;;;4.20;99.90;;;;;;5053178;28;20033;-80
2021/12/04 07:27:31;;;;;;;16.02;10.65;;;4.50;99.90;;;;;;5053118;28;20064;-80
2021/12/04 07:29:59;;;;;;;16.13;10.77;;;4.80;99.90;;;;;;5035143;28;20037;-81
2021/12/04 07:32:25;;;;;;;15.13;10.07;;;5.00;99.90;;;;;;5035089;28;20032;-80
2021/12/04 07:34:51;;;;;;;13.40;8.93;;;5.30;99.90;;;;;;5035355;28;20037;-81
2021/12/04 07:37:16;;;;;;;13.38;9.18;;;5.50;99.90;;;;;;5035826;28;20040;-81
2021/12/04 07:39:42;;;;;;;12.77;8.82;;;5.80;99.60;;;;;;5054203;28;20467;-81
2021/12/04 07:42:08;;;;;;;14.20;9.45;;;6.10;98.60;;;;;;5053272;28;20417;-81
2021/12/04 07:44:33;;;;;;;13.30;8.57;;;6.40;96.60;;;;;;5036280;28;20040;-81
2021/12/04 07:47:00;;;;;;;14.60;9.48;;;6.60;94.60;;;;;;5035798;28;20449;-82
2021/12/04 07:49:26;;;;;;;12.40;7.95;;;6.70;92.10;;;;;;5056996;28;20459;-82
2021/12/04 07:51:58;;;;;;;16.58;10.95;;;6.80;93.30;;;;;;5038612;28;20044;-82
2021/12/04 07:54:23;;;;;;;14.90;9.95;;;6.90;87.80;;;;;;5056024;28;20052;-81
2021/12/04 07:56:49;;;;;;;17.90;11.07;;;7.00;89.30;;;;;;5038099;28;20045;-80
2021/12/04 07:59:15;;;;;;;21.02;11.45;;;7.10;89.70;;;;;;5038345;28;20033;-81
2021/12/04 08:01:40;;;;;;;22.10;12.93;;;7.10;89.00;;;;;;5038123;28;20037;-82
2021/12/04 08:04:06;;;;;;;23.63;13.73;;;7.20;87.00;;;;;;5055953;28;20025;-80
2021/12/04 08:06:33;;;;;;;20.00;11.68;;;7.40;87.30;;;;;;5038954;28;20041;-82
2021/12/04 08:08:59;;;;;;;19.60;12.38;;;7.60;86.10;;;;;;5038292;28;20532;-82
2021/12/04 08:11:26;;;;;;;15.85;11.30;;;7.80;81.00;;;;;;5038035;28;20083;-82
2021/12/04 08:13:52;;;;;;;15.40;10.40;;;8.10;80.80;;;;;;5055668;28;20025;-81
2021/12/04 08:16:24;;;;;;;14.00;8.82;;;8.40;80.60;;;;;;5038127;28;20032;-82
2021/12/04 08:18:50;;;;;;;14.45;10.02;;;8.80;81.30;;;;;;5038064;28;20033;-81
2021/12/04 08:21:16;;;;;;;17.75;11.23;;;8.90;76.70;;;;;;5037864;28;20478;-81
2021/12/04 08:23:42;;;;;;;15.68;10.73;;;9.00;73.10;;;;;;5056469;28;20112;-81
2021/12/04 08:26:07;;;;;;;17.83;10.65;;;9.10;73.10;;;;;;5038257;28;20086;-85
2021/12/04 08:28:33;;;;;;;17.27;12.43;;;9.20;73.10;;;;;;5038620;28;20391;-81
2021/12/04 08:30:59;;;;;;;17.05;11.35;;;9.30;71.20;;;;;;5055818;28;20095;-82
2021/12/04 08:33:24;;;;;;;18.60;12.80;;;9.60;71.80;;;;;;5037706;28;20036;-82
2021/12/04 08:35:50;;;;;;;16.48;10.95;;;9.70;67.70;;;;;;5037798;28;20041;-83
2021/12/04 08:38:16;;;;;;;15.20;10.25;;;10.00;68.70;;;;;;5055979;28;20029;-82
2021/12/04 08:40:43;;;;;;;16.10;10.95;;;10.30;70.30;;;;;;5055629;28;20127;-79
2021/12/04 08:43:09;;;;;;;20.27;13.32;;;10.60;67.30;;;;;;5037817;28;20044;-79
2021/12/04 08:45:36;;;;;;;20.85;12.60;;;10.60;66.20;;;;;;5037261;28;20094;-80
2021/12/04 08:48:02;;;;;;;19.95;13.00;;;10.80;66.10;;;;;;5036990;28;20037;-79
2021/12/04 08:50:31;;;;;;;19.77;12.77;;;11.00;64.70;;;;;;5054777;28;20041;-78
2021/12/04 08:52:58;;;;;;;20.98;14.82;;;11.40;64.10;;;;;;5055408;28;20036;-84
2021/12/04 08:55:25;;;;;;;19.65;13.48;;;11.50;62.00;;;;;;5037734;28;20056;-81
2021/12/04 08:57:51;;;;;;;19.50;13.60;;;11.70;62.50;;;;;;5037545;28;20057;-80
2021/12/04 09:00:33;;;;;;;20.00;13.88;;;11.90;61.10;;;;;;5036208;28;20040;-82
2021/12/04 09:03:00;;;;;;;18.23;13.75;;;12.10;57.10;;;;;;5037744;28;20128;-82
2021/12/04 09:05:25;;;;;;;21.27;14.07;;;12.30;59.40;;;;;;5037302;28;20075;-82
2021/12/04 09:07:53;;;;;;;17.20;12.82;;;12.50;59.50;;;;;;5055108;28;20056;-84
2021/12/04 09:10:19;;;;;;;20.73;14.52;;;12.60;58.40;;;;;;5036698;28;20048;-81
2021/12/04 09:12:46;;;;;;;18.52;13.68;;;12.70;57.60;;;;;;5039927;28;20075;-81
2021/12/04 09:15:15;;;;;;;21.55;13.38;;;13.00;57.30;;;;;;5038584;28;20033;-82
2021/12/04 09:17:42;;;;;;;18.30;13.02;;;13.30;56.80;;;;;;5056896;28;20048;-83
2021/12/04 09:20:09;;;;;;;16.55;12.73;;;13.50;55.60;;;;;;5055020;28;20045;-81
2021/12/04 09:22:36;;;;;;;16.90;12.35;;;13.70;54.80;;;;;;5054645;28;20033;-80
2021/12/04 09:25:11;;;;;;;16.08;12.05;;;14.00;54.40;;;;;;5037574;28;20043;-82
2021/12/04 09:27:48;;;;;;;17.00;11.95;;;14.30;52.80;;;;;;5037246;28;20395;-81
2021/12/04 10:11:27;;;;;;;22.73;15.50;;;12.70;51.20;;;;;;5052583;28;20110;-80
2021/12/04 10:22:24;;;;;;;22.13;14.02;;;12.70;51.70;;;;;;5050815;28;20036;-80
2021/12/04 10:33:17;;;;;;;22.15;14.90;;;14.20;49.50;;;;;;5053145;28;20075;-79
2021/12/04 10:35:45;;;;;;;22.35;16.05;;;14.50;48.50;;;;;;5035975;28;20036;-80
2021/12/04 10:38:24;;;;;;;22.92;16.35;;;14.50;48.20;;;;;;5053650;28;20031;-79
2021/12/04 10:40:52;;;;;;;19.92;13.60;;;14.50;46.60;;;;;;5035787;28;20036;-79
2021/12/04 10:43:30;;;;;;;17.27;12.50;;;14.60;48.60;;;;;;5053450;28;20490;-79
2021/12/04 10:46:00;;;;;;;18.63;12.80;;;14.70;48.20;;;;;;5053664;28;20029;-80
2021/12/04 10:48:36;;;;;;;19.15;13.55;;;14.90;48.60;;;;;;5053654;28;20453;-80
2021/12/04 10:53:54;;;;;;;15.50;11.43;;;15.30;47.30;;;;;;5053977;28;20068;-79
2021/12/04 11:01:54;;;;;;;17.17;11.73;;;15.90;46.10;;;;;;5053324;28;20094;-80
2021/12/04 11:35:12;;;;;;;11.00;8.15;;;15.30;46.10;;;;;;5057829;28;20043;-79
2021/12/04 11:42:59;;;;;;;12.85;8.75;;;15.90;45.10;;;;;;5056816;28;20037;-81
2021/12/04 11:45:34;;;;;;;12.30;8.80;;;16.10;45.30;;;;;;5038710;28;20098;-80
2021/12/04 11:48:03;;;;;;;14.70;9.52;;;16.20;44.90;;;;;;5038765;28;20033;-80
2021/12/04 11:50:35;;;;;;;15.60;10.52;;;16.30;44.40;;;;;;5056206;28;20044;-80
2021/12/04 11:53:09;;;;;;;14.98;11.32;;;16.40;43.80;;;;;;5056743;28;20033;-80
2021/12/04 11:55:39;;;;;;;14.10;10.43;;;16.50;43.20;;;;;;5038274;28;20033;-80
2021/12/04 11:58:27;;;;;;;11.60;9.30;;;16.60;43.70;;;;;;5038291;28;20478;-80
2021/12/04 12:01:03;;;;;;;12.20;9.00;;;16.80;42.10;;;;;;5056377;28;20278;-80
2021/12/04 12:03:34;;;;;;;11.88;8.63;;;16.80;42.40;;;;;;5038868;28;20037;-80
2021/12/04 12:06:24;;;;;;;15.25;9.90;;;16.90;43.20;;;;;;5056260;28;20041;-80
2021/12/04 12:09:08;;;;;;;14.00;9.97;;;16.90;42.90;;;;;;5037694;28;20459;-81
2021/12/04 12:11:35;;;;;;;16.80;12.50;;;16.90;41.80;;;;;;5056511;28;20483;-81
2021/12/04 12:14:06;;;;;;;14.95;11.55;;;16.80;42.80;;;;;;5037903;28;20091;-80
2021/12/04 12:16:38;;;;;;;19.65;12.32;;;16.80;42.70;;;;;;5056043;28;20025;-80
2021/12/04 12:19:09;;;;;;;19.92;12.88;;;16.70;42.70;;;;;;5056007;28;20056;-80
2021/12/04 12:27:35;;;;;;;18.05;12.13;;;16.60;41.00;;;;;;5055993;28;20478;-80
2021/12/04 12:36:09;;;;;;;23.10;16.27;;;16.30;41.30;;;;;;5055715;28;20036;-79
2021/12/04 12:38:43;;;;;;;23.75;15.45;;;16.10;41.90;;;;;;5038270;28;20044;-79
2021/12/04 12:41:39;;;;;;;19.92;13.80;;;16.10;42.00;;;;;;5037366;28;20033;-80
2021/12/04 12:44:23;;;;;;;19.23;13.20;;;16.00;40.30;;;;;;5029461;28;20029;-80
2021/12/04 12:46:49;;;;;;;17.45;12.15;;;15.90;42.10;;;;;;5037707;28;20033;-78
2021/12/04 12:49:38;;;;;;;19.95;12.88;;;15.90;42.70;;;;;;5055607;28;20426;-79
2021/12/04 12:52:13;;;;;;;17.95;13.10;;;15.80;43.70;;;;;;5055564;28;20037;-80
2021/12/04 12:54:57;;;;;;;18.55;13.60;;;15.60;43.60;;;;;;5038003;28;20029;-81
2021/12/04 12:57:38;;;;;;;18.67;13.63;;;15.60;46.50;;;;;;5037988;28;20052;-80
2021/12/04 13:14:12;;;;;;;34.45;22.27;;;14.40;46.20;;;;;;5056248;28;20040;-78
2021/12/04 13:16:42;;;;;;;33.05;21.40;;;14.00;46.70;;;;;;5051878;28;20033;-80
2021/12/04 13:19:12;;;;;;;32.28;22.35;;;13.60;47.60;;;;;;5053525;28;20037;-81
2021/12/04 13:21:45;;;;;;;32.15;21.52;;;13.20;47.60;;;;;;5069140;28;20034;-79
2021/12/04 13:24:14;;;;;;;37.78;23.23;;;12.70;48.20;;;;;;5072540;28;20040;-80
2021/12/04 13:26:44;;;;;;;35.58;22.13;;;12.30;48.70;;;;;;5054525;28;20607;-79
2021/12/04 13:29:12;;;;;;;38.97;23.23;;;11.90;49.20;;;;;;5055879;28;20029;-79
2021/12/04 13:31:38;;;;;;;41.03;25.00;;;11.40;49.60;;;;;;5075949;28;20040;-79
2021/12/04 13:34:09;;;;;;;46.25;27.38;;;11.00;50.30;;;;;;5047307;28;20128;-80
2021/12/04 13:36:36;;;;;;;58.08;34.72;;;10.50;51.50;;;;;;5041211;28;20124;-80
2021/12/04 13:39:10;;;;;;;74.93;44.55;;;10.00;52.20;;;;;;5038133;28;20437;-78
2021/12/04 13:41:39;;;;;;;71.43;41.40;;;9.50;53.60;;;;;;5055000;28;20094;-78
2021/12/04 13:44:07;;;;;;;67.93;39.95;;;9.00;54.30;;;;;;5055103;28;20033;-80
2021/12/04 13:46:42;;;;;;;69.57;40.75;;;8.50;55.00;;;;;;5036101;28;20036;-78
2021/12/04 13:49:09;;;;;;;71.15;41.85;;;8.00;56.60;;;;;;5036549;28;20501;-78
2021/12/04 13:51:34;;;;;;;72.40;41.35;;;7.40;57.40;;;;;;5054394;28;20063;-78
2021/12/04 13:54:02;;;;;;;62.45;36.47;;;6.90;58.80;;;;;;5054998;28;20475;-79
2021/12/04 13:56:28;;;;;;;58.95;34.47;;;6.40;60.00;;;;;;5054423;28;20044;-78
2021/12/04 13:58:58;;;;;;;54.55;28.95;;;5.90;61.30;;;;;;5054093;28;20033;-78
2021/12/04 14:01:25;;;;;;;52.20;27.88;;;5.50;62.30;;;;;;5054267;28;20037;-78
2021/12/04 14:03:56;;;;;;;47.83;26.17;;;5.20;63.90;;;;;;5036203;28;20076;-78
2021/12/04 14:06:22;;;;;;;45.50;25.80;;;4.80;65.60;;;;;;5054616;28;20072;-79
2021/12/04 14:09:05;;;;;;;43.30;24.42;;;4.50;66.10;;;;;;5054387;28;20134;-78
2021/12/04 14:11:36;;;;;;;42.95;25.58;;;4.20;68.90;;;;;;5054365;28;20052;-78
2021/12/04 14:14:14;;;;;;;;;;;3.90;68.50;;;;;;5039962;28;20041;-79
2021/12/04 14:16:42;;;;;;;45.40;25.70;;;3.60;77.90;;;;;;5055516;28;19905;-79
2021/12/04 14:19:16;;;;;;;47.03;26.05;;;3.40;70.40;;;;;;5038984;28;20035;-78
2021/12/04 14:21:50;;;;;;;46.00;26.70;;;3.20;71.20;;;;;;5054341;28;20069;-80
2021/12/04 14:24:26;;;;;;;48.22;25.05;;;3.00;71.90;;;;;;5054439;28;20029;-79
2021/12/04 14:26:54;;;;;;;47.42;25.98;;;2.80;73.70;;;;;;5054320;28;20453;-79
2021/12/04 14:29:20;;;;;;;41.35;24.50;;;2.70;73.90;;;;;;5053905;28;20031;-80
2021/12/04 14:31:48;;;;;;;44.78;24.40;;;2.50;74.40;;;;;;5030694;28;20041;-82
2021/12/04 14:34:26;;;;;;;55.80;30.98;;;2.40;75.40;;;;;;5047948;28;20032;-82
2021/12/04 14:37:06;;;;;;;46.45;26.63;;;2.30;77.90;;;;;;5032623;28;20099;-82
2021/12/04 14:39:32;;;;;;;48.13;25.40;;;2.20;77.50;;;;;;5031820;28;20476;-80
2021/12/04 14:41:58;;;;;;;45.67;23.83;;;2.10;75.90;;;;;;5015506;28;20060;-82
2021/12/04 14:44:24;;;;;;;47.70;24.90;;;2.00;77.20;;;;;;5033487;28;20030;-81
2021/12/04 14:46:51;;;;;;;59.60;32.58;;;1.90;77.70;;;;;;5015753;28;20042;-83
2021/12/04 14:49:18;;;;;;;52.08;27.63;;;1.80;78.60;;;;;;5033491;28;20044;-81
2021/12/04 14:51:46;;;;;;;47.90;26.38;;;1.70;78.20;;;;;;5015912;28;20401;-82
2021/12/04 14:54:12;;;;;;;49.65;25.75;;;1.70;78.40;;;;;;5016106;28;20072;-81
2021/12/04 14:56:38;;;;;;;47.38;25.27;;;1.60;78.20;;;;;;5015502;28;20118;-81
2021/12/04 14:59:14;;;;;;;45.40;24.85;;;1.60;78.60;;;;;;5037371;28;20475;-80
2021/12/04 15:01:40;;;;;;;50.00;24.73;;;1.50;78.30;;;;;;5020389;28;20526;-81
2021/12/04 15:04:06;;;;;;;49.60;24.58;;;1.40;79.60;;;;;;5020352;28;20041;-82
2021/12/04 15:06:36;;;;;;;50.95;25.98;;;1.30;80.00;;;;;;5038347;28;20045;-85
2021/12/04 15:12:31;;;;;;;48.45;26.15;;;1.20;84.90;;;;;;5036991;28;20128;-79
2021/12/04 15:15:08;;;;;;;45.53;22.63;;;1.10;81.10;;;;;;5037063;28;20037;-80
2021/12/04 15:17:35;;;;;;;51.35;24.98;;;1.10;83.70;;;;;;5032217;28;20041;-82
2021/12/04 15:20:09;;;;;;;51.85;26.08;;;1.00;81.00;;;;;;5056190;28;20112;-83
2021/12/04 15:22:42;;;;;;;58.83;27.58;;;1.00;82.00;;;;;;5051828;28;20038;-80
2021/12/04 15:25:14;;;;;;;56.90;29.10;;;0.90;81.80;;;;;;5057387;28;20033;-81
2021/12/04 15:27:40;;;;;;;54.47;27.70;;;0.90;82.70;;;;;;5056247;28;20033;-80
2021/12/04 15:30:10;;;;;;;59.70;30.05;;;0.80;82.20;;;;;;5056453;28;20048;-82
2021/12/04 15:32:39;;;;;;;65.50;31.70;;;0.80;82.50;;;;;;5043173;28;20852;-81
2021/12/04 15:44:34;;;;;;;61.30;31.92;;;0.60;83.60;;;;;;5056205;28;20164;-80
2021/12/04 15:50:28;;;;;;;58.35;31.15;;;0.50;88.50;;;;;;5053488;28;20047;-80
2021/12/04 15:53:07;;;;;;;66.82;32.40;;;0.50;87.70;;;;;;5037998;28;20498;-81
2021/12/04 15:55:37;;;;;;;67.47;33.90;;;0.40;84.90;;;;;;5038779;28;20037;-79
2021/12/04 15:58:09;;;;;;;60.60;30.88;;;0.40;84.90;;;;;;5043366;28;20518;-79
2021/12/04 16:00:41;;;;;;;64.97;31.08;;;0.40;86.10;;;;;;5037923;28;20436;-81
2021/12/04 16:03:16;;;;;;;60.08;30.63;;;0.30;85.90;;;;;;5038119;28;20033;-83
2021/12/04 16:05:58;;;;;;;59.58;29.80;;;0.30;85.30;;;;;;5037515;28;20490;-81
2021/12/04 16:08:30;;;;;;;56.58;28.27;;;0.30;85.60;;;;;;5055378;28;20111;-80
2021/12/04 16:11:02;;;;;;;53.92;26.08;;;0.20;86.00;;;;;;5053351;28;20045;-80
2021/12/04 16:13:31;;;;;;;52.47;27.40;;;0.20;84.90;;;;;;5055068;28;20029;-81
2021/12/04 16:15:59;;;;;;;56.42;28.05;;;0.20;86.10;;;;;;5050595;28;20053;-80
2021/12/04 16:18:28;;;;;;;61.78;30.27;;;0.20;86.20;;;;;;5039724;28;20372;-81
2021/12/04 16:20:55;;;;;;;61.45;30.02;;;0.10;86.60;;;;;;5037600;28;20044;-79
2021/12/04 16:23:25;;;;;;;62.65;30.95;;;0.10;86.90;;;;;;5043620;28;20036;-81
2021/12/04 16:25:53;;;;;;;60.92;30.48;;;0.00;86.90;;;;;;5046302;28;20036;-83
2021/12/04 16:35:07;;;;;;;59.58;30.20;;;-0.10;87.00;;;;;;5061652;28;20028;-81
2021/12/04 16:39:10;;;;;;;58.03;27.23;;;-0.10;87.10;;;;;;5066777;28;20057;-82
2021/12/04 16:41:37;;;;;;;60.30;29.95;;;-0.20;86.60;;;;;;5059221;28;20368;-79
2021/12/04 16:44:06;;;;;;;55.53;28.55;;;-0.20;87.00;;;;;;5049089;28;20135;-84
2021/12/04 16:46:36;;;;;;;55.53;26.88;;;-0.20;86.10;;;;;;5054164;28;20044;-85
2021/12/04 16:49:02;;;;;;;55.67;27.95;;;-0.30;86.20;;;;;;5044253;28;20086;-80
2021/12/04 16:59:24;;;;;;;54.13;28.00;;;-0.30;87.70;;;;;;5064697;28;20498;-81
2021/12/04 17:01:53;;;;;;;59.17;28.58;;;-0.40;87.00;;;;;;5041476;28;20113;-80
2021/12/04 17:04:21;;;;;;;57.30;29.33;;;-0.40;87.00;;;;;;5065406;28;20474;-83
2021/12/04 17:06:50;;;;;;;49.50;25.92;;;-0.40;87.60;;;;;;5046243;28;20048;-80
2021/12/04 17:09:16;;;;;;;48.42;24.23;;;-0.50;86.90;;;;;;5052504;28;20032;-82
2021/12/04 17:11:42;;;;;;;57.58;28.45;;;-0.40;87.00;;;;;;5040414;28;20388;-78
2021/12/04 17:14:09;;;;;;;50.80;26.17;;;-0.50;88.30;;;;;;5053000;28;20036;-79
2021/12/04 17:16:35;;;;;;;46.85;24.42;;;-0.50;87.00;;;;;;5064425;28;20384;-80
2021/12/04 17:19:10;;;;;;;46.47;23.63;;;-0.50;86.90;;;;;;5061064;28;20043;-80
2021/12/04 17:21:38;;;;;;;45.80;23.48;;;-0.60;86.60;;;;;;5062105;28;20040;-85
2021/12/04 17:24:08;;;;;;;41.92;22.83;;;-0.60;86.90;;;;;;5068357;28;20531;-79
2021/12/04 17:26:35;;;;;;;46.88;23.60;;;-0.60;86.80;;;;;;5047484;28;20036;-83
2021/12/04 17:29:01;;;;;;;45.35;23.58;;;-0.60;87.60;;;;;;5053167;28;20028;-80
2021/12/04 17:31:29;;;;;;;50.03;25.33;;;-0.70;87.40;;;;;;5052624;28;20041;-80
2021/12/04 17:33:55;;;;;;;51.58;25.75;;;-0.70;88.10;;;;;;5048593;28;20115;-80
2021/12/04 17:36:26;;;;;;;42.72;21.25;;;-0.70;88.60;;;;;;5041229;28;20032;-82
2021/12/04 17:38:53;;;;;;;43.05;21.88;;;-0.70;87.60;;;;;;5068212;28;20024;-79
2021/12/04 17:41:25;;;;;;;45.88;21.85;;;-0.80;87.50;;;;;;5042016;28;20033;-80
2021/12/04 17:43:51;;;;;;;39.15;20.42;;;-0.80;88.10;;;;;;5049578;28;20036;-80
2021/12/04 17:46:21;;;;;;;42.40;21.73;;;-0.80;87.90;;;;;;5075090;28;20037;-79
2021/12/04 17:48:51;;;;;;;41.60;20.45;;;-0.90;88.30;;;;;;5056864;28;20039;-79
2021/12/04 17:51:20;;;;;;;40.45;21.30;;;-0.90;88.40;;;;;;5069457;28;20041;-80